Terminal Aerodrome Forecast
Issued by NWS

Home | Current Version | Previous Version | Text Only | Print | Product List | Glossary On
Versions: 1 2 3 4 5 6 7 8 9 10 11 12 13 14 15
000
FTUS46 KMTR 300545
TAFSJC
TAF
KSJC 300545Z 3006/0106 31009KT P6SM FEW015
      TEMPO 3010/3014 31004KT P6SM BKN015
     FM301900 32015KT P6SM FEW020
     FM302100 31015G22KT P6SM FEW030
     FM010400 31010KT P6SM FEW030=

USA.gov is the U.S. government's official web portal to all federal, state and local government web resources and services.